Tiempo atmosférico en la estación meteorológica de Fraga, Huesca (170 m.)



Fecha
DESCASC
Temp. máxima en grados centígrados (hora)
DESCASC
Temp. mínima en grados centígrados (hora)
DESCASC
Temp. media en grados centígrados
DESCASC
Racha de viento máxima en m/sg (hora)
DESCASC
Velocidad máxima media en intervalos de 10 minutos(hora)
DESCASC
Precipitaciones diarias en mm
DESCASC
Precipitaciones de 00:00 a 06:00 en mm
DESCASC
Precipitaciones de 06:00 a 12:00 en mm
DESCASC
Precipitaciones de 12:00 a 18:00 en mm
DESCASC
Precipitaciones de 18:00 a 24:00 en mm
DESCASC
22-04-2019 16.2 (15:50) 10.5 (07:30) 13.4 6.39 (05:30) 4.44 (05:30) 2.8 0 2 0.6 0.2
21-04-2019 15.8 (17:40) 9.8 (03:00) 12.8 10 (00:30) 7.22 (00:20) 2.6 2.4 0.2 0 0
20-04-2019 21.1 (13:20) 9.5 (08:30) 15.3 12.5 (14:20) 7.78 (13:10) 2.4 0 0 0 2.4
19-04-2019 22.5 (15:10) 14.1 (05:30) 18.3 15 (16:00) 10.56 (15:00) 0 0 0 0 0
18-04-2019 19.9 (16:20) 10 (00:00) 14.9 16.39 (22:00) 8.89 (22:00) 0.4 0 0.4 0 0
17-04-2019 20.3 (16:10) 8.8 (00:00) 14.5 13.89 (16:30) 7.78 (17:40) 0 0 0 0 0
16-04-2019 22.2 (18:00) 8.5 (00:00) 15.4 10.83 (19:20) 6.11 (02:10) 0 0 0 0 0
15-04-2019 19.1 (00:00) 10.6 (00:00) 14.9 14.17 (17:20) 7.78 (18:40) 3.4 0 0 0 3.4
14-04-2019 26.3 (17:20) 8.1 (00:00) 17.2 15.28 (15:50) 9.72 (16:10) 0 0 0 0 0
13-04-2019 24.1 (17:40) 5.1 (00:00) 14.6 9.17 (18:30) 5.83 (18:30) 0 0 0 0 0
12-04-2019 21.8 (16:50) 7 (00:00) 14.4 10.83 (18:30) 6.39 (18:40) 0 0 0 0 0
11-04-2019 20.9 (17:20) 6.8 (00:00) 13.8 13.61 (18:40) 8.89 (18:40) 0 0 0 0 0
10-04-2019 19.6 (15:50) 7.5 (00:00) 13.6 11.39 (19:10) 7.5 (19:10) 0 0 0 0 0
09-04-2019 19.5 (17:00) 9.2 (00:00) 14.3 12.5 (20:30) 8.61 (20:40) 4.6 2.6 2 0 0
08-04-2019 19.3 (16:40) 6.5 (00:00) 12.9 12.22 (20:10) 7.5 (20:20) 3 0 0 0 3
07-04-2019 17.7 (17:10) 6.3 (00:00) 12 14.72 (11:30) 9.72 (11:50) 0 0 0 0 0
06-04-2019 15.6 (17:20) 6.9 (00:00) 11.3 11.11 (20:30) 7.5 (11:30) 4.8 0.8 0.4 0 3.6
05-04-2019 17.3 (15:10) 5.8 (00:00) 11.5 9.72 (18:10) 6.67 (06:40) 5.4 0 0.8 0.2 4.4
04-04-2019 15.9 (17:20) 3.2 (00:00) 9.5 13.33 (10:50) 8.89 (11:20) 0 0 0 0 0
03-04-2019 14.1 (00:00) 6.6 (00:00) 10.4 11.39 (22:40) 7.5 (22:40) 0.2 0.2 0 0 0
02-04-2019 20.3 (18:30) 8.5 (00:00) 14.4 11.67 (14:50) 7.5 (15:40) 5.4 0 0 5.4 0
01-04-2019 16.9 (18:40) 9.5 (00:00) 13.2 3.89 (15:20) 2.22 (22:10) 0.8 0.6 0.2 0 0
31-03-2019 15 (17:00) 4.4 (00:00) 9.7 6.11 (00:40) 5 (01:00) 0 0 0 0 0
30-03-2019 20 (16:20) 3.1 (00:00) 11.5 8.61 (17:20) 5.28 (19:00) 0 0 0 0 0
29-03-2019 19.9 (15:20) 4.7 (00:00) 12.3 10.56 (17:20) 6.11 (18:50) 0 0 0 0 0
28-03-2019 20.2 (16:50) 3.6 (00:00) 11.9 10 (18:40) 5.83 (18:40) 0 0 0 0 0
27-03-2019 20.6 (17:10) 2.7 (00:00) 11.7 8.61 (22:30) 5.28 (22:20) 0 0 0 0 0
26-03-2019 20.9 (16:40) 4.6 (00:00) 12.7 11.67 (18:50) 6.11 (19:20) 0 0 0 0 0
25-03-2019 22 (14:40) 8 (00:00) 15 10.28 (18:20) 5.56 (14:40) 0 0 0 0 0

Gráficas

Temp. máximas Temp. mínimas Temp. medias Precipitaciones Rachas de viento máximas Velocidades máximas media en intervalos de 10 minutos

Datos horarios

Fecha y hora oficial Temperatura (ºC) Velocidad del viento (km/h) Dirección del viento Racha (km/h) Dirección de racha Precipitación (mm) Presión (hPa) Tendencia (hPa) Humedad (%)
2019-04-23 23:00:00 11.9 0 Calma 11 Noroeste 0 -- -- 91
2019-04-23 22:00:00 12.2 0 Calma 5 Oeste 0 -- -- 90
2019-04-23 21:00:00 12.4 3 Norte 15 Norte 0.2 -- -- 88
2019-04-23 20:00:00 12.8 14 Nordeste 30 Nordeste 2 -- -- 89
2019-04-23 19:00:00 13.8 3 Sudeste 44 Oeste 0.8 -- -- 83
2019-04-23 18:00:00 19.8 21 Sur 41 Sudeste 0 -- -- 55
2019-04-23 17:00:00 21.5 13 Sudeste 29 Sur 0 -- -- 46
2019-04-23 16:00:00 21.1 10 Sudeste 23 Este 0 -- -- 49
2019-04-23 15:00:00 20.9 10 Nordeste 20 Nordeste 0 -- -- 55
2019-04-23 14:00:00 19.7 7 Nordeste 17 Sur 0 -- -- 63
2019-04-23 13:00:00 18.9 9 Este 19 Nordeste 0 -- -- 66
2019-04-23 12:00:00 17.1 6 Sudeste 15 Norte 0 -- -- 69
2019-04-23 11:00:00 14.8 7 Nordeste 11 Nordeste 0 -- -- 82
2019-04-23 10:00:00 13.1 4 Nordeste 7 Nordeste 0 -- -- 90
2019-04-23 09:00:00 11.7 2 Sudeste 6 Sur 0 -- -- 95
2019-04-23 08:00:00 11.1 2 Nordeste 6 Sur 0 -- -- 95
2019-04-23 07:00:00 11 4 Sur 8 Sudoeste 0 -- -- 94
2019-04-23 06:00:00 11.2 0 Calma 4 Sur 0 -- -- 93
2019-04-23 05:00:00 11.4 2 Sudeste 5 Sudoeste 0 -- -- 93
2019-04-23 04:00:00 11.6 2 Sudoeste 6 Sudeste 0 -- -- 92
2019-04-23 03:00:00 11.6 3 Sur 6 Sur 0 -- -- 91
2019-04-23 02:00:00 11.9 2 Nordeste 9 Sur 0 -- -- 89
2019-04-23 01:00:00 12.1 5 Sur 13 Sudeste 0 -- -- 89
2019-04-23 00:00:00 12.7 5 Sudeste 14 Sudeste 0 -- -- 86
2019-04-22 23:00:00 13.3 5 Sur 9 Sudoeste 0 -- -- 81
2019-04-22 22:00:00 13.5 6 Sudoeste 14 Sudoeste 0 -- -- 80
2019-04-22 21:00:00 13.8 4 Sudoeste 15 Sudoeste 0 -- -- 78
2019-04-22 20:00:00 14.1 7 Sudoeste 15 Sudoeste 0 -- -- 78
2019-04-22 19:00:00 14.2 7 Oeste 16 Sudoeste 0.2 -- -- 81
2019-04-22 18:00:00 14.6 6 Sur 16 Sur 0.6 -- -- 82
2019-04-22 17:00:00 15.3 10 Sur 15 Sur 0 -- -- 79
2019-04-22 16:00:00 16.1 6 Sudoeste 12 Oeste 0 -- -- 75
2019-04-22 15:00:00 15.4 8 Oeste 16 Oeste 0 -- -- 77
2019-04-22 14:00:00 14.3 9 Noroeste 13 Oeste 0 -- -- 80
2019-04-22 13:00:00 13.7 10 Oeste 15 Oeste 0 -- -- 83
2019-04-22 12:00:00 12.8 10 Oeste 18 Oeste 0 -- -- 88
2019-04-22 11:00:00 12.4 11 Noroeste 19 Noroeste 0 -- -- 86
2019-04-22 10:00:00 11.6 7 Noroeste 15 Noroeste 0.2 -- -- 88
2019-04-22 09:00:00 10.9 8 Noroeste 15 Noroeste 0.6 -- -- 89
2019-04-22 08:00:00 10.8 5 Norte 13 Norte 0.6 -- -- 89
2019-04-22 07:00:00 11.1 5 Oeste 18 Noroeste 0.6 -- -- 87
2019-04-22 06:00:00 11.1 10 Noroeste 23 Noroeste 0 -- -- 84
2019-04-22 05:00:00 11.5 8 Noroeste 15 Norte 0 -- -- 83
2019-04-22 04:00:00 11.9 6 Noroeste 11 Noroeste 0 -- -- 82
2019-04-22 03:00:00 11.9 6 Noroeste 12 Noroeste 0 -- -- 85
2019-04-22 02:00:00 12.2 5 Noroeste 10 Noroeste 0 -- -- 83
2019-04-22 01:00:00 12.6 2 Norte 8 Norte 0 -- -- 81
2019-04-22 00:00:00 12.8 4 Norte 10 Nordeste 0 -- -- 82
2019-04-21 23:00:00 13.7 6 Sur 10 Sudoeste 0 -- -- 81
2019-04-21 22:00:00 14 2 Sudoeste 8 Sudoeste 0 -- -- 78
2019-04-21 21:00:00 14.9 2 Nordeste 17 Norte 0 -- -- 69
2019-04-21 20:00:00 15 5 Norte 14 Noroeste 0 -- -- 68
2019-04-21 19:00:00 15.7 6 Noroeste 16 Oeste 0 -- -- 68
2019-04-21 18:00:00 15.7 7 Noroeste 14 Noroeste 0 -- -- 69
2019-04-21 17:00:00 15.7 8 Oeste 12 Noroeste 0 -- -- 73
2019-04-21 16:00:00 15.1 2 Norte 6 Oeste 0 -- -- 71
2019-04-21 15:00:00 14.4 3 Norte 10 Norte 0 -- -- 74
2019-04-21 14:00:00 13.8 3 Norte 15 Noroeste 0 -- -- 79
2019-04-21 13:00:00 13.5 8 Noroeste 13 Noroeste 0 -- -- 81
2019-04-21 12:00:00 12.7 8 Noroeste 17 Noroeste 0 -- -- 86
2019-04-21 11:00:00 11.4 3 Oeste 6 Noroeste 0 -- -- 91
2019-04-21 10:00:00 10.5 4 Norte 11 Noroeste 0.2 -- -- 92
2019-04-21 09:00:00 10.3 7 Sudoeste 11 Sur 0 -- -- 93
2019-04-21 08:00:00 9.9 4 Noroeste 10 Norte 0 -- -- 94
2019-04-21 07:00:00 9.9 3 Oeste 8 Noroeste 0 -- -- 94
2019-04-21 06:00:00 9.9 4 Norte 18 Noroeste 0 -- -- 94
2019-04-21 05:00:00 9.9 2 Oeste 6 Noroeste 0.2 -- -- 94
2019-04-21 04:00:00 9.8 4 Oeste 8 Noroeste 0.2 -- -- 93
2019-04-21 03:00:00 9.8 5 Noroeste 8 Noroeste 1 -- -- 92
2019-04-21 02:00:00 9.9 3 Sur 23 Nordeste 0.6 -- -- 91
2019-04-21 01:00:00 9.9 16 Nordeste 36 Nordeste 0.4 -- -- 89
2019-04-21 00:00:00 10.1 18 Nordeste 28 Nordeste 1.6 -- -- 87
2019-04-20 23:00:00 11.3 13 Este 27 Este 0.8 -- -- 80
2019-04-20 22:00:00 12.7 14 Este 32 Sudeste 0 -- -- 70
2019-04-20 21:00:00 13.2 10 Sudeste 32 Sudeste 0 -- -- 66
2019-04-20 20:00:00 14.5 15 Sudeste 28 Sur 0 -- -- 64
2019-04-20 19:00:00 16.4 13 Sudeste 37 Sudeste 0 -- -- 54
2019-04-20 18:00:00 18.5 16 Este 43 Este 0 -- -- 43
2019-04-20 17:00:00 19.8 22 Este 43 Este 0 -- -- 39
2019-04-20 16:00:00 20.7 24 Nordeste 35 Este 0 -- -- 36
2019-04-20 15:00:00 20.6 18 Este 45 Este 0 -- -- 34
2019-04-20 14:00:00 20.9 20 Nordeste 44 Este 0 -- -- 36
2019-04-20 13:00:00 20.6 27 Nordeste 43 Este 0 -- -- 36
2019-04-20 12:00:00 19.2 17 Este 31 Nordeste 0 -- -- 40
2019-04-20 11:00:00 18.2 20 Nordeste 31 Nordeste 0 -- -- 41
2019-04-20 10:00:00 12.6 5 Noroeste 12 Oeste 0 -- -- 66
2019-04-20 09:00:00 10.1 5 Oeste 9 Oeste 0 -- -- 71
2019-04-20 08:00:00 9.8 0 Calma 9 Noroeste 0 -- -- 64
2019-04-20 07:00:00 10.6 2 Noroeste 8 Norte 0 -- -- 61
2019-04-20 06:00:00 12.8 5 Nordeste 23 Nordeste 0 -- -- 50
2019-04-20 05:00:00 13.3 8 Nordeste 25 Nordeste 0 -- -- 47
2019-04-20 04:00:00 14.1 18 Nordeste 22 Nordeste 0 -- -- 46
2019-04-20 03:00:00 14.4 9 Nordeste 21 Este 0 -- -- 46
2019-04-20 02:00:00 15.9 14 Este 27 Este 0 -- -- 40
2019-04-20 01:00:00 15.2 11 Este 17 Nordeste 0 -- -- 47
2019-04-20 00:00:00 16 10 Nordeste 17 Nordeste 0 -- -- 47
2019-04-19 23:00:00 17.1 12 Este 19 Este 0 -- -- 44
2019-04-19 22:00:00 17.8 7 Nordeste 38 Este 0 -- -- 45
2019-04-19 21:00:00 19.1 21 Este 39 Este 0 -- -- 40
2019-04-19 20:00:00 20.2 17 Este 39 Este 0 -- -- 35
2019-04-19 19:00:00 21.1 19 Este 38 Este 0 -- -- 34
2019-04-19 18:00:00 21.9 16 Este 42 Este 0 -- -- 36
2019-04-19 17:00:00 22.3 26 Este 50 Nordeste 0 -- -- 33
2019-04-19 16:00:00 22 30 Este 54 Este 0 -- -- 35
2019-04-19 15:00:00 22.4 38 Nordeste 52 Nordeste 0 -- -- 42
2019-04-19 14:00:00 20.7 29 Nordeste 49 Nordeste 0 -- -- 45
2019-04-19 13:00:00 19.6 29 Nordeste 42 Este 0 -- -- 47
2019-04-19 12:00:00 19 22 Nordeste 40 Nordeste 0 -- -- 48
2019-04-19 11:00:00 17.9 21 Nordeste 41 Este 0 -- -- 51
2019-04-19 10:00:00 16.7 21 Este 40 Nordeste 0 -- -- 53
2019-04-19 09:00:00 15.7 26 Nordeste 39 Nordeste 0 -- -- 54
2019-04-19 08:00:00 14.5 17 Nordeste 28 Nordeste 0 -- -- 56
2019-04-19 07:00:00 14.4 16 Nordeste 25 Este 0 -- -- 56
2019-04-19 06:00:00 14.3 7 Este 18 Nordeste 0 -- -- 57
2019-04-19 05:00:00 14.6 8 Nordeste 35 Nordeste 0 -- -- 55
2019-04-19 04:00:00 14.7 24 Nordeste 34 Este 0 -- -- 54
2019-04-19 03:00:00 14.6 10 Nordeste 35 Este 0 -- -- 58
2019-04-19 02:00:00 15.8 23 Este 45 Este 0 -- -- 53
2019-04-19 01:00:00 15 16 Nordeste 31 Este 0 -- -- 56
2019-04-19 00:00:00 15.9 17 Nordeste 42 Nordeste 0 -- -- 51
2019-04-18 23:00:00 16.4 25 Nordeste 49 Este 0 -- -- 51
2019-04-18 22:00:00 17.3 32 Este 59 Este 0 -- -- 54
2019-04-18 21:00:00 17.3 21 Este 44 Este 0 -- -- 54
2019-04-18 20:00:00 18 27 Este 49 Este 0 -- -- 53
2019-04-18 19:00:00 18.8 23 Nordeste 43 Nordeste 0 -- -- 51
2019-04-18 18:00:00 19 27 Este 53 Este 0 -- -- 48
2019-04-18 17:00:00 19.7 21 Este 36 Este 0 -- -- 43
2019-04-18 16:00:00 19.7 22 Este 39 Este 0 -- -- 43
2019-04-18 15:00:00 17.8 26 Nordeste 44 Nordeste 0 -- -- 51
2019-04-18 14:00:00 16.4 26 Nordeste 40 Nordeste 0 -- -- 56
2019-04-18 13:00:00 15.5 30 Nordeste 49 Este 0 -- -- 56
2019-04-18 12:00:00 13.7 21 Nordeste 32 Nordeste 0.2 -- -- 69
2019-04-18 11:00:00 11.7 3 Oeste 14 Nordeste 0 -- -- 89
2019-04-18 10:00:00 11.4 10 Nordeste 16 Nordeste 0.2 -- -- 86
2019-04-18 09:00:00 10.6 0 Calma 8 Nordeste 0 -- -- 88
2019-04-18 08:00:00 10 0 Calma 7 Sudoeste 0 -- -- 87
2019-04-18 07:00:00 10.3 0 Calma 21 Nordeste 0 -- -- 85
2019-04-18 06:00:00 10.8 18 Nordeste 26 Nordeste 0 -- -- 83
2019-04-18 05:00:00 11 13 Nordeste 20 Nordeste 0 -- -- 80
2019-04-18 04:00:00 11.7 9 Este 27 Nordeste 0 -- -- 77
2019-04-18 03:00:00 12.1 18 Este 26 Este 0 -- -- 77
2019-04-18 02:00:00 12.2 10 Nordeste 14 Nordeste 0 -- -- 74
2019-04-18 01:00:00 13 8 Este 18 Sudeste 0 -- -- 71
2019-04-18 00:00:00 13.5 9 Este 31 Sudeste 0 -- -- 72
2019-04-17 23:00:00 14.2 15 Sudeste 30 Sur 0 -- -- 64
2019-04-17 22:00:00 15 15 Sudeste 30 Sudeste 0 -- -- 58
2019-04-17 21:00:00 15.8 17 Sudeste 46 Este 0 -- -- 56
2019-04-17 20:00:00 16.6 16 Sudeste 47 Sudeste 0 -- -- 54
2019-04-17 19:00:00 17.5 27 Sudeste 46 Sudeste 0 -- -- 53
2019-04-17 18:00:00 18.3 27 Sudeste 45 Sudeste 0 -- -- 52
2019-04-17 17:00:00 19.5 25 Sudeste 50 Sudeste 0 -- -- 51
2019-04-17 16:00:00 20 19 Sudeste 46 Sudeste 0 -- -- 50
2019-04-17 15:00:00 19.3 23 Sudeste 45 Sudeste 0 -- -- 51
2019-04-17 14:00:00 18.2 23 Sudeste 43 Sudeste 0 -- -- 55
2019-04-17 13:00:00 17 19 Sudeste 36 Sudeste 0 -- -- 60
2019-04-17 12:00:00 16.6 17 Sudeste 36 Sudeste 0 -- -- 61
2019-04-17 11:00:00 16.1 10 Este 22 Este 0 -- -- 65
2019-04-17 10:00:00 14.2 8 Este 16 Sudeste 0 -- -- 71
2019-04-17 09:00:00 10.8 5 Nordeste 10 Este 0 -- -- 83
2019-04-17 08:00:00 9.4 5 Este 13 Este 0 -- -- 87
2019-04-17 07:00:00 8.8 4 Sudeste 21 Nordeste 0 -- -- 87
2019-04-17 06:00:00 9.3 16 Nordeste 28 Nordeste 0 -- -- 86
2019-04-17 05:00:00 10 20 Nordeste 26 Este 0 -- -- 83
2019-04-17 04:00:00 10.6 12 Nordeste 17 Nordeste 0 -- -- 78
2019-04-17 03:00:00 11.2 6 Nordeste 13 Sudeste 0 -- -- 73
2019-04-17 02:00:00 12.3 9 Sudeste 19 Este 0 -- -- 73
2019-04-17 01:00:00 12.6 11 Este 19 Este 0 -- -- 73
2019-04-17 00:00:00 12.8 11 Sudeste 23 Sudeste 0 -- -- 66
2019-04-16 23:00:00 13.6 13 Sudeste 26 Sudeste 0 -- -- 60
2019-04-16 22:00:00 14.4 17 Sur 31 Sudeste 0 -- -- 53
2019-04-16 21:00:00 15.6 16 Sudeste 29 Sur 0 -- -- 47
2019-04-16 20:00:00 17.7 17 Sudeste 39 Sudeste 0 -- -- 44
2019-04-16 19:00:00 19.7 19 Sudeste 32 Sudeste 0 -- -- 47
2019-04-16 18:00:00 22.2 7 Nordeste 19 Este 0 -- -- 42
2019-04-16 17:00:00 21.7 10 Nordeste 21 Nordeste 0 -- -- 44
2019-04-16 16:00:00 20.8 8 Este 18 Este 0 -- -- 46
2019-04-16 15:00:00 20 3 Sur 22 Norte 0 -- -- 46
2019-04-16 14:00:00 19.5 6 Nordeste 18 Nordeste 0 -- -- 48
2019-04-16 13:00:00 17.9 5 Sudoeste 12 Sudeste 0 -- -- 54
2019-04-16 12:00:00 16.7 6 Nordeste 14 Sudeste 0 -- -- 60
2019-04-16 11:00:00 14.3 5 Sur 11 Sur 0 -- -- 65
2019-04-16 10:00:00 12.4 6 Sur 9 Sur 0 -- -- 74
2019-04-16 09:00:00 10.5 0 Calma 4 Sudeste 0 -- -- 77
2019-04-16 08:00:00 8.8 0 Calma 4 Oeste 0 -- -- 84
2019-04-16 07:00:00 8.6 2 Noroeste 6 Norte 0 -- -- 83
2019-04-16 06:00:00 9.1 2 Noroeste 9 Norte 0 -- -- 80
2019-04-16 05:00:00 9.2 6 Noroeste 13 Noroeste 0 -- -- 79
2019-04-16 04:00:00 9.3 5 Noroeste 11 Nordeste 0 -- -- 80
2019-04-16 03:00:00 9.7 12 Nordeste 27 Nordeste 0 -- -- 76
2019-04-16 02:00:00 10.2 21 Nordeste 27 Este 0 -- -- 72
2019-04-16 01:00:00 10.6 18 Nordeste 27 Nordeste 0 -- -- 74
2019-04-16 00:00:00 11.1 12 Norte 36 Sudeste 3.4 -- -- 77
2019-04-15 23:00:00 13.4 18 Sudeste 40 Este 0 -- -- 59
2019-04-15 22:00:00 13.7 20 Sudeste 40 Este 0 -- -- 56
2019-04-15 21:00:00 14.2 19 Este 38 Sudeste 0 -- -- 53
2019-04-15 20:00:00 15.2 24 Sudeste 42 Sudeste 0 -- -- 52
2019-04-15 19:00:00 16.3 23 Sudeste 44 Sudeste 0 -- -- 50
2019-04-15 18:00:00 17 24 Sudeste 51 Este 0 -- -- 50
2019-04-15 17:00:00 18.2 20 Sudeste 44 Sudeste 0 -- -- 51
2019-04-15 16:00:00 17.9 24 Sudeste 47 Sudeste 0 -- -- 53
2019-04-15 15:00:00 17.7 27 Sudeste 48 Sudeste 0 -- -- 52
2019-04-15 14:00:00 17.9 21 Sudeste 47 Sudeste 0 -- -- 53
2019-04-15 13:00:00 17.5 23 Sudeste 44 Sudeste 0 -- -- 56
2019-04-15 12:00:00 17.8 23 Sudeste 38 Sudeste 0 -- -- 53
2019-04-15 11:00:00 16.7 21 Sudeste 35 Sudeste 0 -- -- 52
2019-04-15 10:00:00 15.1 9 Este 19 Nordeste 0 -- -- 60
2019-04-15 09:00:00 12.8 10 Este 16 Este 0 -- -- 72
2019-04-15 08:00:00 10.6 8 Este 18 Este 0 -- -- 83
2019-04-15 07:00:00 11 10 Este 18 Este 0 -- -- 84
2019-04-15 06:00:00 11 13 Este 22 Este 0 -- -- 86
2019-04-15 05:00:00 11.4 11 Este 23 Este 0 -- -- 85
2019-04-15 04:00:00 12.1 15 Este 33 Este 0 -- -- 82
2019-04-15 03:00:00 13.5 15 Este 25 Nordeste 0 -- -- 75
2019-04-15 02:00:00 16.7 3 Este 8 Oeste 0 -- -- 62
2019-04-15 01:00:00 17.7 3 Sur 15 Sur 0 -- -- 58
2019-04-15 00:00:00 19.1 6 Sudoeste 18 Sudoeste 0 -- -- 54
2019-04-14 23:00:00 20 12 Sudoeste 22 Noroeste 0 -- -- 51
2019-04-14 22:00:00 20.7 12 Noroeste 31 Noroeste 0 -- -- 50
2019-04-14 21:00:00 22 21 Oeste 35 Oeste 0 -- -- 46
2019-04-14 20:00:00 23.7 27 Oeste 47 Noroeste 0 -- -- 41
2019-04-14 19:00:00 24.9 31 Noroeste 47 Noroeste 0 -- -- 38
2019-04-14 18:00:00 25.9 28 Noroeste 46 Noroeste 0 -- -- 35
2019-04-14 17:00:00 25.7 28 Oeste 49 Oeste 0 -- -- 34
2019-04-14 16:00:00 25.6 32 Oeste 55 Oeste 0 -- -- 34
2019-04-14 15:00:00 25.2 24 Noroeste 39 Oeste 0 -- -- 35
2019-04-14 14:00:00 24.6 23 Oeste 46 Oeste 0 -- -- 35
2019-04-14 13:00:00 22.3 9 Oeste 18 Noroeste 0 -- -- 36
2019-04-14 12:00:00 20 3 Este 16 Nordeste 0 -- -- 34
2019-04-14 11:00:00 16.9 3 Noroeste 9 Nordeste 0 -- -- 37
2019-04-14 10:00:00 15.1 5 Este 9 Este 0 -- -- 39
2019-04-14 09:00:00 12.2 2 Sur 11 Sudoeste 0 -- -- 41
2019-04-14 08:00:00 9.9 5 Sur 10 Sudoeste 0 -- -- 42
2019-04-14 07:00:00 8.1 2 Nordeste 8 Sudoeste 0 -- -- 48
2019-04-14 06:00:00 10.1 0 Calma 12 Sudoeste 0 -- -- 39
2019-04-14 05:00:00 11.4 8 Sur 13 Sudoeste 0 -- -- 33
2019-04-14 04:00:00 11.5 8 Sudoeste 14 Sudoeste 0 -- -- 35
2019-04-14 03:00:00 10.9 0 Calma 4 Noroeste 0 -- -- 35
2019-04-14 02:00:00 12.5 2 Sur 4 Sur 0 -- -- 34
2019-04-14 01:00:00 14.6 3 Noroeste 22 Noroeste 0 -- -- 27
2019-04-14 00:00:00 16.4 11 Noroeste 20 Noroeste 0 -- -- 25
2019-04-13 23:00:00 18.2 10 Sudoeste 21 Oeste 0 -- -- 21
2019-04-13 22:00:00 18.7 7 Sudoeste 18 Sudoeste 0 -- -- 17
2019-04-13 21:00:00 19.2 5 Sudoeste 16 Sudoeste 0 -- -- 18
2019-04-13 20:00:00 21.9 10 Sudoeste 30 Oeste 0 -- -- 15
2019-04-13 19:00:00 23.3 18 Oeste 33 Oeste 0 -- -- 13
2019-04-13 18:00:00 23.9 14 Oeste 29 Sudoeste 0 -- -- 16
2019-04-13 17:00:00 23.5 14 Oeste 30 Oeste 0 -- -- 19
2019-04-13 16:00:00 22.5 15 Oeste 28 Oeste 0 -- -- 23
2019-04-13 15:00:00 21.3 13 Oeste 23 Sudoeste 0 -- -- 26
2019-04-13 14:00:00 19.3 8 Sudoeste 20 Oeste 0 -- -- 33
2019-04-13 13:00:00 17.2 8 Oeste 18 Noroeste 0 -- -- 40
2019-04-13 12:00:00 14.9 6 Oeste 16 Noroeste 0 -- -- 45
2019-04-13 11:00:00 12.1 5 Sur 13 Sudeste 0 -- -- 54
2019-04-13 10:00:00 8.9 3 Sudoeste 6 Oeste 0 -- -- 66
2019-04-13 09:00:00 7 3 Sur 6 Sudoeste 0 -- -- 74
2019-04-13 08:00:00 5.3 2 Oeste 4 Oeste 0 -- -- 81
2019-04-13 07:00:00 5.4 2 Noroeste 4 Oeste 0 -- -- 80
2019-04-13 06:00:00 6.4 0 Calma 5 Oeste 0 -- -- 75
2019-04-13 05:00:00 7.5 3 Noroeste 9 Sudoeste 0 -- -- 71
2019-04-13 04:00:00 8.9 2 Sur 10 Sudoeste 0 -- -- 67
2019-04-13 03:00:00 9.7 6 Sudoeste 13 Sudoeste 0 -- -- 64
2019-04-13 02:00:00 10.8 5 Sudoeste 13 Sur 0 -- -- 60
2019-04-13 01:00:00 11.7 5 Sudoeste 14 Sur 0 -- -- 57
2019-04-13 00:00:00 12.7 4 Sur 13 Sur 0 -- -- 53
2019-04-12 23:00:00 14 10 Sudoeste 28 Oeste 0 -- -- 49
2019-04-12 22:00:00 15.4 15 Noroeste 27 Oeste 0 -- -- 45
2019-04-12 21:00:00 17.5 19 Oeste 32 Oeste 0 -- -- 36
2019-04-12 20:00:00 19.5 20 Oeste 34 Oeste 0 -- -- 30
2019-04-12 19:00:00 21.1 17 Oeste 39 Sudoeste 0 -- -- 28
2019-04-12 18:00:00 21.5 22 Oeste 35 Oeste 0 -- -- 28
2019-04-12 17:00:00 21.7 21 Oeste 33 Oeste 0 -- -- 29
2019-04-12 16:00:00 21.4 11 Oeste 33 Oeste 0 -- -- 32
2019-04-12 15:00:00 20.5 14 Oeste 29 Oeste 0 -- -- 34
2019-04-12 14:00:00 18.9 13 Oeste 28 Oeste 0 -- -- 39
2019-04-12 13:00:00 17.3 14 Oeste 33 Oeste 0 -- -- 45
2019-04-12 12:00:00 15.3 12 Oeste 22 Oeste 0 -- -- 53
2019-04-12 11:00:00 12.9 7 Sudoeste 19 Oeste 0 -- -- 64
2019-04-12 10:00:00 10.2 8 Sudoeste 16 Sudoeste 0 -- -- 70
2019-04-12 09:00:00 8.1 5 Sudoeste 13 Sudoeste 0 -- -- 78
2019-04-12 08:00:00 7.1 8 Sudoeste 19 Sudoeste 0 -- -- 80
2019-04-12 07:00:00 7.3 11 Sudoeste 21 Sudoeste 0 -- -- 78
2019-04-12 06:00:00 7.6 11 Sudoeste 22 Sudoeste 0 -- -- 77
2019-04-12 05:00:00 8 9 Sudoeste 19 Sudoeste 0 -- -- 75
2019-04-12 04:00:00 8.2 4 Sudoeste 18 Sudoeste 0 -- -- 72
2019-04-12 03:00:00 8.8 6 Sudoeste 15 Sur 0 -- -- 69
2019-04-12 02:00:00 9.9 9 Sudoeste 23 Oeste 0 -- -- 65
2019-04-12 01:00:00 10.9 15 Oeste 25 Oeste 0 -- -- 61
2019-04-12 00:00:00 11.9 10 Oeste 32 Noroeste 0 -- -- 57
2019-04-11 23:00:00 12.7 21 Noroeste 39 Oeste 0 -- -- 53
2019-04-11 22:00:00 14 22 Noroeste 39 Noroeste 0 -- -- 48
2019-04-11 21:00:00 15.5 21 Oeste 34 Oeste 0 -- -- 46
2019-04-11 20:00:00 17.3 23 Noroeste 48 Oeste 0 -- -- 41
2019-04-11 19:00:00 18.8 29 Oeste 49 Oeste 0 -- -- 39
2019-04-11 18:00:00 20.4 25 Oeste 39 Oeste 0 -- -- 37
2019-04-11 17:00:00 20.7 19 Oeste 35 Noroeste 0 -- -- 33
2019-04-11 16:00:00 20.4 19 Oeste 33 Oeste 0 -- -- 32
2019-04-11 15:00:00 19.3 17 Oeste 28 Oeste 0 -- -- 32
2019-04-11 14:00:00 18.5 17 Oeste 29 Oeste 0 -- -- 34
2019-04-11 13:00:00 16.7 15 Oeste 29 Oeste 0 -- -- 37
2019-04-11 12:00:00 15.9 12 Oeste 24 Oeste 0 -- -- 44
2019-04-11 11:00:00 13.5 17 Noroeste 27 Oeste 0 -- -- 53
2019-04-11 10:00:00 11.1 10 Oeste 21 Oeste 0 -- -- 65
2019-04-11 09:00:00 8.7 8 Sudoeste 14 Sudoeste 0 -- -- 72
2019-04-11 08:00:00 7 9 Sudoeste 15 Sudoeste 0 -- -- 78
2019-04-11 07:00:00 7 8 Sudoeste 17 Sudoeste 0 -- -- 78
2019-04-11 06:00:00 7.6 10 Sudoeste 18 Sudoeste 0 -- -- 76
2019-04-11 05:00:00 7.8 8 Sudoeste 16 Sudoeste 0 -- -- 75
2019-04-11 04:00:00 8.2 10 Sudoeste 14 Sudoeste 0 -- -- 74
2019-04-11 03:00:00 9.1 8 Sudoeste 14 Sudoeste 0 -- -- 69
2019-04-11 02:00:00 9.4 3 Oeste 10 Noroeste 0 -- -- 69
2019-04-11 01:00:00 10.3 5 Noroeste 12 Sudoeste 0 -- -- 68
2019-04-11 00:00:00 11.5 7 Sudoeste 10 Sudoeste 0 -- -- 66
2019-04-10 23:00:00 12.5 3 Noroeste 10 Sur 0 -- -- 63
2019-04-10 22:00:00 13.6 6 Sur 15 Sur 0 -- -- 60
2019-04-10 21:00:00 14.5 2 Sudoeste 15 Noroeste 0 -- -- 51
2019-04-10 20:00:00 15.2 8 Oeste 41 Noroeste 0 -- -- 53
2019-04-10 19:00:00 17 24 Oeste 40 Oeste 0 -- -- 45
2019-04-10 18:00:00 17.5 12 Sudoeste 33 Noroeste 0 -- -- 43
2019-04-10 17:00:00 19 12 Oeste 26 Oeste 0 -- -- 39
2019-04-10 16:00:00 19.2 15 Oeste 24 Oeste 0 -- -- 40
2019-04-10 15:00:00 18.2 13 Sudoeste 28 Oeste 0 -- -- 43
2019-04-10 14:00:00 17.4 17 Oeste 32 Oeste 0 -- -- 49
2019-04-10 13:00:00 16.5 11 Oeste 28 Noroeste 0 -- -- 52
2019-04-10 12:00:00 14.7 15 Oeste 28 Oeste 0 -- -- 57
2019-04-10 11:00:00 13.1 17 Oeste 27 Oeste 0 -- -- 62
2019-04-10 10:00:00 10.9 10 Oeste 24 Oeste 0 -- -- 70
2019-04-10 09:00:00 8.6 8 Oeste 19 Noroeste 0 -- -- 78
2019-04-10 08:00:00 7.7 10 Sudoeste 15 Sudoeste 0 -- -- 81
2019-04-10 07:00:00 7.5 7 Sudoeste 13 Sudoeste 0 -- -- 83
2019-04-10 06:00:00 7.9 4 Sudoeste 10 Oeste 0 -- -- 82
2019-04-10 05:00:00 8.9 4 Oeste 8 Noroeste 0 -- -- 80
2019-04-10 04:00:00 9.6 5 Noroeste 14 Oeste 0 -- -- 78
2019-04-10 03:00:00 9.9 6 Oeste 13 Oeste 0 -- -- 76
2019-04-10 02:00:00 10.5 6 Oeste 15 Sudoeste 0 -- -- 73
2019-04-10 01:00:00 11 11 Sudoeste 17 Sudoeste 0 -- -- 71
2019-04-10 00:00:00 11.6 8 Sudoeste 16 Oeste 0 -- -- 67
2019-04-09 23:00:00 12.2 9 Oeste 30 Oeste 0 -- -- 63
2019-04-09 22:00:00 13.3 20 Oeste 42 Oeste 0 -- -- 59
2019-04-09 21:00:00 14.5 26 Oeste 45 Oeste 0 -- -- 54
2019-04-09 20:00:00 16 20 Oeste 35 Oeste 0 -- -- 47
2019-04-09 19:00:00 17.9 20 Oeste 38 Oeste 0 -- -- 39
2019-04-09 18:00:00 19.3 20 Oeste 36 Oeste 0 -- -- 36
2019-04-09 17:00:00 19.5 19 Oeste 38 Oeste 0 -- -- 36
2019-04-09 16:00:00 18.9 24 Oeste 39 Oeste 0 -- -- 37
2019-04-09 15:00:00 18.5 20 Oeste 36 Oeste 0 -- -- 39
2019-04-09 14:00:00 17.6 22 Oeste 36 Oeste 0 -- -- 46
2019-04-09 13:00:00 16.8 22 Oeste 36 Oeste 0 -- -- 48
2019-04-09 12:00:00 15.3 19 Oeste 34 Oeste 0 -- -- 59
2019-04-09 11:00:00 14.2 23 Oeste 38 Noroeste 0 -- -- 64
2019-04-09 10:00:00 11.7 7 Oeste 19 Oeste 0 -- -- 76
2019-04-09 09:00:00 9.8 9 Sur 27 Sudoeste 0 -- -- 80
2019-04-09 08:00:00 9.7 7 Sudoeste 12 Sur 0 -- -- 81
2019-04-09 07:00:00 9.7 4 Sudeste 10 Sudeste 2 -- -- 85
2019-04-09 06:00:00 10 6 Sudoeste 31 Oeste 2.6 -- -- 84
2019-04-09 05:00:00 11.4 15 Oeste 31 Oeste 0 -- -- 79
2019-04-09 04:00:00 11.9 9 Oeste 19 Oeste 0 -- -- 73
2019-04-09 03:00:00 11.9 6 Norte 19 Sudoeste 0 -- -- 75
2019-04-09 02:00:00 11.9 8 Sudoeste 23 Oeste 0 -- -- 75
2019-04-09 01:00:00 11.4 2 Nordeste 12 Sur 0 -- -- 82
2019-04-09 00:00:00 11.9 2 Sur 25 Noroeste 0 -- -- 78
2019-04-08 23:00:00 12.3 5 Sudoeste 28 Noroeste 0 -- -- 81
2019-04-08 22:00:00 12.5 0 Calma 8 Sur 0 -- -- 79
2019-04-08 21:00:00 12.4 7 Noroeste 44 Noroeste 3 -- -- 78
2019-04-08 20:00:00 17.5 4 Oeste 13 Sudoeste 0 -- -- 52
2019-04-08 19:00:00 18.5 7 Sur 14 Sur 0 -- -- 54
2019-04-08 18:00:00 18.1 3 Noroeste 15 Noroeste 0 -- -- 55
2019-04-08 17:00:00 18.8 9 Noroeste 19 Noroeste 0 -- -- 52
2019-04-08 16:00:00 18.5 10 Noroeste 27 Oeste 0 -- -- 53
2019-04-08 15:00:00 18 11 Oeste 31 Oeste 0 -- -- 55
2019-04-08 14:00:00 16.8 13 Oeste 20 Oeste 0 -- -- 60
2019-04-08 13:00:00 15.1 9 Oeste 19 Oeste 0 -- -- 65
2019-04-08 12:00:00 14.2 5 Oeste 11 Oeste 0 -- -- 68
2019-04-08 11:00:00 11.5 0 Calma 5 Sur 0 -- -- 74
2019-04-08 10:00:00 8.9 4 Sur 8 Sur 0 -- -- 82
2019-04-08 09:00:00 7.1 0 Calma 3 Oeste 0 -- -- 89
2019-04-08 08:00:00 6.5 0 Calma 8 Oeste 0 -- -- 89
2019-04-08 07:00:00 6.8 0 Calma 5 Sudoeste 0 -- -- 85
2019-04-08 06:00:00 7.2 2 Oeste 4 Sur 0 -- -- 81
2019-04-08 05:00:00 7.2 2 Nordeste 3 Oeste 0 -- -- 79
2019-04-08 04:00:00 7.9 0 Calma 9 Este 0 -- -- 75
2019-04-08 03:00:00 9.1 0 Calma 7 Sur 0 -- -- 69
2019-04-08 02:00:00 9.6 3 Este 10 Este 0 -- -- 65
2019-04-08 01:00:00 11.3 3 Sur 6 Sudoeste 0 -- -- 57
2019-04-08 00:00:00 11.5 4 Sudoeste 9 Sudoeste 0 -- -- 55
2019-04-07 23:00:00 12.2 5 Sur 8 Sur 0 -- -- 53
2019-04-07 22:00:00 12.7 4 Sudoeste 12 Oeste 0 -- -- 51
2019-04-07 21:00:00 14.1 9 Oeste 21 Oeste 0 -- -- 45
2019-04-07 20:00:00 15.9 16 Oeste 30 Noroeste 0 -- -- 42
2019-04-07 19:00:00 16.8 22 Oeste 37 Oeste 0 -- -- 39
2019-04-07 18:00:00 17.2 22 Oeste 38 Oeste 0 -- -- 40
2019-04-07 17:00:00 17.6 19 Oeste 37 Noroeste 0 -- -- 39
2019-04-07 16:00:00 16.4 24 Oeste 45 Oeste 0 -- -- 44
2019-04-07 15:00:00 15.7 26 Oeste 42 Noroeste 0 -- -- 45
2019-04-07 14:00:00 14.9 27 Oeste 46 Oeste 0 -- -- 49
2019-04-07 13:00:00 13.7 32 Oeste 50 Oeste 0 -- -- 52
2019-04-07 12:00:00 13 31 Oeste 53 Oeste 0 -- -- 55
2019-04-07 11:00:00 11.4 33 Oeste 51 Oeste 0 -- -- 62
2019-04-07 10:00:00 9.5 13 Oeste 24 Noroeste 0 -- -- 79
2019-04-07 09:00:00 7.3 10 Noroeste 17 Noroeste 0 -- -- 87
2019-04-07 08:00:00 6.4 4 Noroeste 8 Oeste 0 -- -- 91
2019-04-07 07:00:00 6.9 4 Norte 17 Noroeste 0 -- -- 90
2019-04-07 06:00:00 7.1 5 Oeste 7 Oeste 0 -- -- 92
2019-04-07 05:00:00 7.2 0 Calma 6 Sudoeste 0 -- -- 91
2019-04-07 04:00:00 7 0 Calma 7 Sudoeste 0 -- -- 92
2019-04-07 03:00:00 7.6 7 Sudeste 12 Este 0 -- -- 86
2019-04-07 02:00:00 7.5 3 Sudoeste 7 Sudeste 0 -- -- 90
2019-04-07 01:00:00 7.4 0 Calma 5 Oeste 0 -- -- 88
2019-04-07 00:00:00 7.8 2 Este 5 Sudeste 0 -- -- 84
2019-04-06 23:00:00 8.3 3 Sur 15 Sudeste 0 -- -- 81
2019-04-06 22:00:00 8.7 8 Sudeste 16 Sudeste 1.6 -- -- 79
2019-04-06 21:00:00 8.8 12 Sur 40 Sudoeste 2 -- -- 80
2019-04-06 20:00:00 13.6 14 Sur 26 Sur 0 -- -- 48
2019-04-06 19:00:00 14.9 7 Sudoeste 22 Sur 0 -- -- 41
2019-04-06 18:00:00 15.2 6 Oeste 20 Sudoeste 0 -- -- 41
2019-04-06 17:00:00 14.7 12 Sudoeste 30 Sudoeste 0 -- -- 45
2019-04-06 16:00:00 14.6 13 Sudoeste 31 Oeste 0 -- -- 44
2019-04-06 15:00:00 15.4 18 Oeste 35 Oeste 0 -- -- 43
2019-04-06 14:00:00 13.7 13 Oeste 33 Oeste 0 -- -- 48
2019-04-06 13:00:00 11.8 21 Oeste 37 Oeste 0 -- -- 56
2019-04-06 12:00:00 11.9 18 Oeste 37 Oeste 0 -- -- 61
2019-04-06 11:00:00 9.7 15 Oeste 29 Sudoeste 0 -- -- 70
2019-04-06 10:00:00 7.8 11 Sudoeste 24 Sudoeste 0 -- -- 77
2019-04-06 09:00:00 7.1 8 Sudoeste 17 Sudoeste 0 -- -- 81
2019-04-06 08:00:00 7 2 Oeste 14 Oeste 0.2 -- -- 83
2019-04-06 07:00:00 7.1 7 Sudoeste 25 Sudoeste 0.2 -- -- 84
2019-04-06 06:00:00 7.2 5 Sudoeste 18 Oeste 0.2 -- -- 84
2019-04-06 05:00:00 7.4 5 Oeste 23 Oeste 0 -- -- 85
2019-04-06 04:00:00 7.1 10 Oeste 30 Oeste 0 -- -- 85
2019-04-06 03:00:00 7 22 Oeste 33 Sudoeste 0 -- -- 86
2019-04-06 02:00:00 7.1 13 Sudoeste 25 Sudoeste 0 -- -- 89
2019-04-06 01:00:00 7.5 12 Oeste 39 Sudoeste 0.6 -- -- 88
2019-04-06 00:00:00 9.3 0 Calma 6 Norte 0 -- -- 93
2019-04-05 23:00:00 9.1 5 Norte 17 Oeste 0 -- -- 93
2019-04-05 22:00:00 9.6 2 Oeste 5 Noroeste 0 -- -- 92
2019-04-05 21:00:00 9.7 3 Noroeste 9 Norte 0 -- -- 90
2019-04-05 20:00:00 10.3 6 Nordeste 10 Nordeste 0 -- -- 90
2019-04-05 19:00:00 10.6 2 Noroeste 35 Sur 4.4 -- -- 87
2019-04-05 18:00:00 14.2 15 Sudeste 33 Sur 0.2 -- -- 63
2019-04-05 17:00:00 15.7 21 Nordeste 34 Nordeste 0 -- -- 52
2019-04-05 16:00:00 16.2 11 Este 23 Nordeste 0 -- -- 49
2019-04-05 15:00:00 17 14 Nordeste 24 Este 0 -- -- 51
2019-04-05 14:00:00 15.2 13 Nordeste 22 Nordeste 0 -- -- 61
2019-04-05 13:00:00 12.8 10 Nordeste 20 Nordeste 0 -- -- 69
2019-04-05 12:00:00 11.4 10 Nordeste 16 Nordeste 0 -- -- 71
2019-04-05 11:00:00 8.4 4 Este 26 Este 0 -- -- 75
2019-04-05 10:00:00 6.2 0 Calma 13 Sudeste 0.4 -- -- 79
2019-04-05 09:00:00 6.3 7 Este 12 Este 0.4 -- -- 68
2019-04-05 08:00:00 6.7 4 Oeste 25 Nordeste 0 -- -- 61
2019-04-05 07:00:00 6.6 16 Nordeste 32 Nordeste 0 -- -- 56
2019-04-05 06:00:00 6.3 21 Nordeste 31 Nordeste 0 -- -- 59
2019-04-05 05:00:00 6.2 21 Nordeste 27 Nordeste 0 -- -- 61
2019-04-05 04:00:00 5.9 13 Este 22 Este 0 -- -- 61
2019-04-05 03:00:00 6.7 11 Este 22 Este 0 -- -- 60
2019-04-05 02:00:00 8.3 10 Este 16 Este 0 -- -- 61
2019-04-05 01:00:00 9.2 8 Sudeste 19 Sur 0 -- -- 58
2019-04-05 00:00:00 9.7 13 Sudeste 24 Sudeste 0 -- -- 54
2019-04-04 23:00:00 9.8 12 Sudeste 19 Sudeste 0 -- -- 50
2019-04-04 22:00:00 10 3 Sudeste 14 Sudeste 0 -- -- 40
2019-04-04 21:00:00 11.5 4 Nordeste 9 Nordeste 0 -- -- 34
2019-04-04 20:00:00 13.7 3 Sur 10 Oeste 0 -- -- 29
2019-04-04 19:00:00 15.2 6 Noroeste 26 Sudoeste 0 -- -- 25
2019-04-04 18:00:00 15.7 17 Oeste 33 Oeste 0 -- -- 25
2019-04-04 17:00:00 15.7 19 Oeste 38 Oeste 0 -- -- 25
2019-04-04 16:00:00 15.3 20 Oeste 40 Oeste 0 -- -- 31
2019-04-04 15:00:00 14.3 18 Oeste 37 Oeste 0 -- -- 35
2019-04-04 14:00:00 12.4 21 Oeste 40 Oeste 0 -- -- 40
2019-04-04 13:00:00 11.7 28 Oeste 41 Oeste 0 -- -- 42
2019-04-04 12:00:00 10.4 27 Oeste 47 Noroeste 0 -- -- 45
2019-04-04 11:00:00 9.8 31 Oeste 48 Oeste 0 -- -- 45
2019-04-04 10:00:00 6.5 16 Oeste 33 Oeste 0 -- -- 62
2019-04-04 09:00:00 5.5 18 Oeste 31 Oeste 0 -- -- 62
2019-04-04 08:00:00 3.2 15 Oeste 25 Oeste 0 -- -- 70
2019-04-04 07:00:00 3.8 4 Noroeste 33 Oeste 0 -- -- 67
2019-04-04 06:00:00 4.7 23 Oeste 39 Noroeste 0 -- -- 62
2019-04-04 05:00:00 4.9 27 Oeste 42 Oeste 0 -- -- 61
2019-04-04 04:00:00 5.1 15 Oeste 29 Oeste 0 -- -- 59
2019-04-04 03:00:00 4.9 13 Oeste 27 Sudoeste 0 -- -- 63
2019-04-04 02:00:00 5.1 16 Sudoeste 31 Sudoeste 0 -- -- 75
2019-04-04 01:00:00 5.7 17 Sudoeste 30 Sudoeste 0 -- -- 76
2019-04-04 00:00:00 6.6 15 Sudoeste 36 Oeste 0 -- -- 74
2019-04-03 23:00:00 8.4 26 Oeste 41 Oeste 0 -- -- 61
2019-04-03 22:00:00 9.5 21 Oeste 35 Noroeste 0 -- -- 51
2019-04-03 21:00:00 9 15 Oeste 30 Oeste 0 -- -- 60
2019-04-03 20:00:00 9.1 15 Sudoeste 28 Sudoeste 0 -- -- 77
2019-04-03 19:00:00 9.2 5 Sur 22 Sudeste 0 -- -- 72
2019-04-03 18:00:00 10.1 8 Sur 24 Sudoeste 0 -- -- 66
2019-04-03 17:00:00 10.8 13 Oeste 26 Oeste 0 -- -- 62
2019-04-03 16:00:00 11.3 17 Noroeste 34 Oeste 0 -- -- 63
2019-04-03 15:00:00 13.1 17 Noroeste 30 Oeste 0 -- -- 56
2019-04-03 14:00:00 13.6 18 Oeste 29 Sudoeste 0 -- -- 60
2019-04-03 13:00:00 13.2 7 Sudoeste 18 Sudoeste 0 -- -- 67
2019-04-03 12:00:00 12.4 8 Sur 15 Sudoeste 0 -- -- 71
2019-04-03 11:00:00 11.8 6 Sudoeste 14 Sudoeste 0 -- -- 73
2019-04-03 10:00:00 10.1 5 Sur 12 Sudoeste 0 -- -- 79
2019-04-03 09:00:00 10 5 Sudoeste 13 Oeste 0 -- -- 78
2019-04-03 08:00:00 9.7 6 Sudoeste 22 Sudoeste 0 -- -- 77
2019-04-03 07:00:00 10.3 10 Sudoeste 22 Sudoeste 0 -- -- 76
2019-04-03 06:00:00 11.4 6 Sudoeste 12 Sur 0 -- -- 76
2019-04-03 05:00:00 12.1 4 Sur 11 Sudeste 0.2 -- -- 75
2019-04-03 04:00:00 12.9 6 Sur 16 Oeste 0 -- -- 69
2019-04-03 03:00:00 12.9 2 Oeste 8 Nordeste 0 -- -- 70
2019-04-03 02:00:00 13.6 2 Sur 12 Sudoeste 0 -- -- 66
2019-04-03 01:00:00 13.9 5 Sudoeste 22 Sur 0 -- -- 64
2019-04-03 00:00:00 14.1 11 Sur 23 Sur 0 -- -- 63
2019-04-02 23:00:00 15.1 6 Sur 21 Oeste 0 -- -- 59
2019-04-02 22:00:00 15.4 9 Sudoeste 23 Sudoeste 0 -- -- 54
2019-04-02 21:00:00 16.3 10 Sudoeste 24 Sudoeste 0 -- -- 54
2019-04-02 20:00:00 18.3 11 Oeste 25 Oeste 0 -- -- 47
2019-04-02 19:00:00 19.9 18 Oeste 31 Oeste 0 -- -- 44
2019-04-02 18:00:00 18.9 2 Oeste 12 Oeste 0 -- -- 55
2019-04-02 17:00:00 19.4 8 Oeste 17 Oeste 0 -- -- 56
2019-04-02 16:00:00 15.3 16 Oeste 40 Oeste 2.6 -- -- 58
2019-04-02 15:00:00 16.2 5 Este 42 Noroeste 2.8 -- -- 65
2019-04-02 14:00:00 19.6 11 Sudoeste 24 Sur 0 -- -- 56
2019-04-02 13:00:00 17.7 15 Oeste 29 Oeste 0 -- -- 62
2019-04-02 12:00:00 16.8 5 Oeste 15 Sudoeste 0 -- -- 64
2019-04-02 11:00:00 14.6 5 Sudoeste 9 Sudoeste 0 -- -- 64
2019-04-02 10:00:00 11.2 2 Sur 4 Sur 0 -- -- 76
2019-04-02 09:00:00 9.3 0 Calma 5 Sur 0 -- -- 82
2019-04-02 08:00:00 8.7 0 Calma 5 Nordeste 0 -- -- 83
2019-04-02 07:00:00 8.6 2 Sudoeste 5 Sudoeste 0 -- -- 83
2019-04-02 06:00:00 8.7 3 Sur 6 Sur 0 -- -- 81
2019-04-02 05:00:00 8.7 3 Nordeste 5 Nordeste 0 -- -- 79
2019-04-02 04:00:00 8.9 3 Nordeste 6 Oeste 0 -- -- 77
2019-04-02 03:00:00 9.4 2 Sudoeste 5 Sudoeste 0 -- -- 76
2019-04-02 02:00:00 10.1 0 Calma 8 Sudoeste 0 -- -- 72
2019-04-02 01:00:00 11.1 3 Sur 6 Sudoeste 0 -- -- 69
2019-04-02 00:00:00 12.2 2 Sudeste 10 Este 0 -- -- 63
2019-04-01 23:00:00 13.3 4 Este 11 Sudeste 0 -- -- 56
2019-04-01 22:00:00 14.2 6 Este 10 Este 0 -- -- 54
2019-04-01 21:00:00 14.7 4 Nordeste 11 Noroeste 0 -- -- 62
2019-04-01 20:00:00 15.9 5 Noroeste 9 Oeste 0 -- -- 58
2019-04-01 19:00:00 16.9 3 Oeste 6 Sudeste 0 -- -- 50
2019-04-01 18:00:00 16.7 2 Noroeste 9 Sudoeste 0 -- -- 53
2019-04-01 17:00:00 16.2 5 Sudoeste 12 Este 0 -- -- 58
2019-04-01 16:00:00 16 4 Sur 14 Sudoeste 0 -- -- 57
2019-04-01 15:00:00 15.3 3 Oeste 10 Oeste 0 -- -- 66
2019-04-01 14:00:00 14.4 4 Oeste 11 Oeste 0 -- -- 67
2019-04-01 13:00:00 13.3 6 Oeste 12 Noroeste 0 -- -- 69
2019-04-01 12:00:00 12.5 5 Oeste 10 Oeste 0 -- -- 81
2019-04-01 11:00:00 11.5 3 Oeste 5 Oeste 0.2 -- -- 86
2019-04-01 10:00:00 10.5 2 Oeste 4 Oeste 0 -- -- 90
2019-04-01 09:00:00 9.7 0 Calma 4 Noroeste 0 -- -- 92
2019-04-01 08:00:00 9.5 2 Oeste 5 Norte 0 -- -- 91
2019-04-01 07:00:00 9.5 3 Nordeste 10 Noroeste 0 -- -- 92
2019-04-01 06:00:00 9.6 6 Noroeste 13 Noroeste 0.2 -- -- 91
2019-04-01 05:00:00 10.3 3 Noroeste 5 Noroeste 0.2 -- -- 90
2019-04-01 04:00:00 10.4 0 Calma 4 Este 0.2 -- -- 89
2019-04-01 03:00:00 10.6 0 Calma 6 Sur 0 -- -- 87
2019-04-01 02:00:00 10.9 3 Sur 10 Sudoeste 0 -- -- 85
2019-04-01 01:00:00 11 4 Sudoeste 10 Sudoeste 0 -- -- 85
2019-04-01 00:00:00 11.5 4 Sudoeste 9 Sudoeste 0 -- -- 81
2019-03-31 23:00:00 12 4 Sur 8 Sur 0 -- -- 78
2019-03-31 22:00:00 12.7 6 Sur 8 Sur 0 -- -- 72
2019-03-31 21:00:00 12.9 4 Sur 9 Sur 0 -- -- 68
2019-03-31 20:00:00 14.1 2 Noroeste 7 Noroeste 0 -- -- 60
2019-03-31 19:00:00 14.5 3 Oeste 5 Oeste 0 -- -- 58
2019-03-31 18:00:00 14.5 3 Oeste 13 Oeste 0 -- -- 58
2019-03-31 17:00:00 15 6 Oeste 14 Oeste 0 -- -- 56
2019-03-31 16:00:00 14.2 2 Sudeste 11 Nordeste 0 -- -- 58
2019-03-31 15:00:00 13.9 3 Nordeste 10 Nordeste 0 -- -- 62
2019-03-31 14:00:00 12.6 2 Oeste 8 Sudoeste 0 -- -- 68
2019-03-31 13:00:00 10.7 3 Noroeste 7 Noroeste 0 -- -- 74
2019-03-31 12:00:00 8.9 4 Oeste 8 Oeste 0 -- -- 79
2019-03-31 11:00:00 7.3 2 Oeste 7 Oeste 0 -- -- 85
2019-03-31 10:00:00 5.7 4 Noroeste 6 Oeste 0 -- -- 90
2019-03-31 09:00:00 4.4 0 Calma 4 Oeste 0 -- -- 92
2019-03-31 08:00:00 4.6 2 Sur 5 Oeste 0 -- -- 92
2019-03-31 07:00:00 4.9 2 Norte 4 Norte 0 -- -- 89
2019-03-31 06:00:00 5.6 3 Noroeste 4 Oeste 0 -- -- 87
2019-03-31 05:00:00 6.5 2 Norte 12 Norte 0 -- -- 84
2019-03-31 03:00:00 8.3 12 Nordeste 21 Nordeste 0 -- -- 79
2019-03-31 01:00:00 8.9 18 Nordeste 22 Nordeste 0 -- -- 78
2019-03-31 00:00:00 9.7 17 Nordeste 21 Nordeste 0 -- -- 75
2019-03-30 23:00:00 10.7 7 Este 18 Sudeste 0 -- -- 72
2019-03-30 22:00:00 11.6 13 Sudeste 29 Sudeste 0 -- -- 71
2019-03-30 21:00:00 12 11 Sur 28 Sur 0 -- -- 69
2019-03-30 20:00:00 13.2 10 Sudeste 26 Sur 0 -- -- 62
2019-03-30 19:00:00 15.1 19 Sur 30 Sudeste 0 -- -- 54
2019-03-30 18:00:00 17.3 18 Sur 31 Sudeste 0 -- -- 46
2019-03-30 17:00:00 18.6 17 Sudeste 27 Sur 0 -- -- 42
2019-03-30 16:00:00 19.6 5 Sur 19 Sudeste 0 -- -- 37
2019-03-30 15:00:00 18.6 10 Este 21 Nordeste 0 -- -- 40
2019-03-30 14:00:00 17.9 8 Sudeste 21 Sudeste 0 -- -- 39
2019-03-30 13:00:00 17 9 Nordeste 17 Este 0 -- -- 43
2019-03-30 12:00:00 15 5 Sudoeste 16 Nordeste 0 -- -- 47
2019-03-30 11:00:00 13.8 4 Norte 15 Nordeste 0 -- -- 54
2019-03-30 10:00:00 10.7 4 Nordeste 12 Nordeste 0 -- -- 64
2019-03-30 09:00:00 6.3 2 Sudoeste 4 Sur 0 -- -- 77
2019-03-30 08:00:00 3.8 0 Calma 4 Noroeste 0 -- -- 85
2019-03-30 07:00:00 3.2 3 Noroeste 5 Noroeste 0 -- -- 85
2019-03-30 06:00:00 3.8 0 Calma 4 Sudoeste 0 -- -- 81
2019-03-30 05:00:00 4.9 2 Sudoeste 5 Sudoeste 0 -- -- 78
2019-03-30 04:00:00 6 0 Calma 6 Este 0 -- -- 74
2019-03-30 03:00:00 6.8 0 Calma 7 Nordeste 0 -- -- 70
2019-03-30 02:00:00 8.4 9 Nordeste 15 Este 0 -- -- 63
2019-03-30 01:00:00 9.4 10 Nordeste 14 Nordeste 0 -- -- 61
2019-03-30 00:00:00 10.5 3 Este 14 Sudeste 0 -- -- 63
2019-03-29 23:00:00 10.9 8 Este 20 Sudeste 0 -- -- 63
2019-03-29 22:00:00 11.7 13 Sudeste 21 Sudeste 0 -- -- 56
2019-03-29 21:00:00 12.5 8 Sudeste 24 Sudeste 0 -- -- 47
2019-03-29 20:00:00 13.8 12 Sudeste 34 Sur 0 -- -- 44
2019-03-29 19:00:00 15.5 19 Sudeste 36 Sudeste 0 -- -- 39
2019-03-29 18:00:00 17.2 19 Sur 38 Sur 0 -- -- 35
2019-03-29 17:00:00 18.5 17 Sur 30 Sudeste 0 -- -- 34
2019-03-29 16:00:00 18.5 14 Sudeste 27 Este 0 -- -- 36
2019-03-29 15:00:00 19.5 12 Sudeste 28 Sudeste 0 -- -- 36
2019-03-29 14:00:00 19.1 12 Sur 27 Sudeste 0 -- -- 34
2019-03-29 13:00:00 18.4 8 Sudeste 23 Sudeste 0 -- -- 34
2019-03-29 12:00:00 17.4 7 Sudeste 20 Nordeste 0 -- -- 35
2019-03-29 11:00:00 15.1 7 Nordeste 11 Nordeste 0 -- -- 45
2019-03-29 10:00:00 10.6 3 Sudoeste 6 Sudoeste 0 -- -- 61
2019-03-29 09:00:00 7 2 Sudoeste 4 Oeste 0 -- -- 71
2019-03-29 08:00:00 5.4 0 Calma 4 Sudoeste 0 -- -- 75
2019-03-29 07:00:00 4.7 2 Sudoeste 6 Sudoeste 0 -- -- 76
2019-03-29 06:00:00 5.4 3 Sur 7 Sur 0 -- -- 73
2019-03-29 05:00:00 5.9 5 Sur 8 Sur 0 -- -- 71
2019-03-29 04:00:00 7.7 4 Sudeste 20 Nordeste 0 -- -- 63
2019-03-29 03:00:00 8.3 13 Nordeste 24 Nordeste 0 -- -- 61
2019-03-29 02:00:00 8.2 19 Nordeste 26 Nordeste 0 -- -- 60
2019-03-29 01:00:00 9.1 16 Nordeste 26 Nordeste 0 -- -- 58
2019-03-29 00:00:00 10.1 12 Este 20 Este 0 -- -- 52
2019-03-28 23:00:00 11.9 15 Sudeste 30 Sudeste 0 -- -- 41
2019-03-28 22:00:00 12.8 18 Sudeste 32 Sudeste 0 -- -- 37
2019-03-28 21:00:00 13.7 17 Sudeste 32 Sur 0 -- -- 35
2019-03-28 20:00:00 14.7 14 Sudeste 27 Sudeste 0 -- -- 35
2019-03-28 19:00:00 16.3 17 Sudeste 36 Sudeste 0 -- -- 34
2019-03-28 18:00:00 19.7 4 Sur 14 Sur 0 -- -- 25
2019-03-28 17:00:00 19.8 10 Sur 18 Sur 0 -- -- 29
2019-03-28 16:00:00 19.4 9 Sur 21 Sur 0 -- -- 31
2019-03-28 15:00:00 19.1 11 Sur 20 Sudoeste 0 -- -- 33
2019-03-28 14:00:00 18.4 7 Sudoeste 16 Sudoeste 0 -- -- 37
2019-03-28 13:00:00 16.2 9 Oeste 18 Oeste 0 -- -- 43
2019-03-28 12:00:00 14.7 6 Oeste 16 Oeste 0 -- -- 47
2019-03-28 11:00:00 12.5 4 Sur 10 Sur 0 -- -- 52
2019-03-28 10:00:00 10.2 2 Sur 7 Sur 0 -- -- 57
2019-03-28 09:00:00 7.4 0 Calma 4 Nordeste 0 -- -- 66
2019-03-28 08:00:00 4 3 Nordeste 5 Norte 0 -- -- 83
2019-03-28 07:00:00 3.8 2 Sur 4 Sur 0 -- -- 81
2019-03-28 06:00:00 4.5 3 Oeste 4 Sudoeste 0 -- -- 82
2019-03-28 05:00:00 5.9 0 Calma 4 Sudoeste 0 -- -- 79
2019-03-28 04:00:00 6.8 2 Sudeste 6 Sur 0 -- -- 74
2019-03-28 03:00:00 7.3 0 Calma 10 Este 0 -- -- 72
2019-03-28 02:00:00 8.8 9 Este 17 Este 0 -- -- 67
2019-03-28 01:00:00 10.2 9 Este 16 Este 0 -- -- 64
2019-03-28 00:00:00 10 6 Este 19 Este 0 -- -- 60
2019-03-27 23:00:00 12.1 13 Sudeste 31 Sudeste 0 -- -- 53
2019-03-27 22:00:00 13.3 19 Sudeste 31 Sudeste 0 -- -- 47
2019-03-27 21:00:00 14.2 16 Sudeste 27 Sudeste 0 -- -- 41
2019-03-27 20:00:00 15.5 17 Sudeste 28 Sur 0 -- -- 40
2019-03-27 19:00:00 18.6 6 Sur 13 Sur 0 -- -- 27
2019-03-27 18:00:00 20.3 6 Sudoeste 14 Sudoeste 0 -- -- 26
2019-03-27 17:00:00 20.5 4 Oeste 16 Sudoeste 0 -- -- 23
2019-03-27 16:00:00 20.4 10 Oeste 19 Oeste 0 -- -- 23
2019-03-27 15:00:00 19.4 13 Oeste 24 Oeste 0 -- -- 28
2019-03-27 14:00:00 18.2 10 Sudoeste 18 Sudoeste 0 -- -- 38
2019-03-27 13:00:00 16 8 Sudoeste 24 Oeste 0 -- -- 43
2019-03-27 12:00:00 14 9 Oeste 15 Oeste 0 -- -- 44
2019-03-27 11:00:00 11.9 4 Sudoeste 11 Sudeste 0 -- -- 52
2019-03-27 10:00:00 9.1 4 Sur 6 Sudeste 0 -- -- 60
2019-03-27 09:00:00 5.2 2 Oeste 5 Sur 0 -- -- 82
2019-03-27 08:00:00 3.7 0 Calma 5 Oeste 0 -- -- 87
2019-03-27 07:00:00 3 0 Calma 3 Oeste 0 -- -- 86
2019-03-27 06:00:00 3.9 0 Calma 6 Sur 0 -- -- 84
2019-03-27 05:00:00 5.1 2 Sudeste 3 Sudeste 0 -- -- 81
2019-03-27 04:00:00 5.8 0 Calma 5 Sudoeste 0 -- -- 75
2019-03-27 03:00:00 7.4 3 Nordeste 14 Este 0 -- -- 71
2019-03-27 02:00:00 9.4 9 Este 15 Sudeste 0 -- -- 67
2019-03-27 01:00:00 10.3 8 Sudeste 18 Sudeste 0 -- -- 64
2019-03-27 00:00:00 10.5 10 Sudeste 19 Sudeste 0 -- -- 63
2019-03-26 23:00:00 10.6 13 Sudeste 25 Sudeste 0 -- -- 62
2019-03-26 22:00:00 11.2 11 Sudeste 27 Sudeste 0 -- -- 60
2019-03-26 21:00:00 11.8 17 Sudeste 34 Sudeste 0 -- -- 58
2019-03-26 20:00:00 12.9 14 Sudeste 36 Sudeste 0 -- -- 56
2019-03-26 19:00:00 15.6 20 Sudeste 42 Sudeste 0 -- -- 48
2019-03-26 18:00:00 20.4 10 Sudoeste 21 Sudoeste 0 -- -- 25
2019-03-26 17:00:00 20.9 11 Sudoeste 26 Sur 0 -- -- 26
2019-03-26 16:00:00 20.7 14 Sudoeste 28 Oeste 0 -- -- 27
2019-03-26 15:00:00 20.2 11 Oeste 31 Oeste 0 -- -- 27
2019-03-26 14:00:00 18.7 13 Oeste 30 Oeste 0 -- -- 28
2019-03-26 13:00:00 17.6 13 Oeste 24 Oeste 0 -- -- 33
2019-03-26 12:00:00 15.2 7 Sudoeste 22 Oeste 0 -- -- 40
2019-03-26 11:00:00 13.1 11 Oeste 22 Oeste 0 -- -- 50
2019-03-26 10:00:00 10.3 4 Oeste 12 Oeste 0 -- -- 62
2019-03-26 09:00:00 7.5 2 Noroeste 5 Noroeste 0 -- -- 70
2019-03-26 08:00:00 5.8 2 Norte 6 Noroeste 0 -- -- 77
2019-03-26 07:00:00 4.9 3 Oeste 4 Oeste 0 -- -- 75
2019-03-26 06:00:00 5.7 2 Nordeste 9 Sudoeste 0 -- -- 73
2019-03-26 05:00:00 6.4 7 Sudoeste 19 Sudoeste 0 -- -- 71
2019-03-26 04:00:00 7.2 11 Sudoeste 19 Sudoeste 0 -- -- 68
2019-03-26 03:00:00 7.5 6 Sudoeste 18 Sudoeste 0 -- -- 66
2019-03-26 02:00:00 8.3 6 Sudoeste 21 Sudoeste 0 -- -- 64
2019-03-26 01:00:00 9.2 7 Sur 17 Sur 0 -- -- 63
2019-03-26 00:00:00 10 7 Sur 23 Sudoeste 0 -- -- 60
2019-03-25 23:00:00 10.9 10 Sudoeste 29 Sudoeste 0 -- -- 56
2019-03-25 22:00:00 12.3 9 Sudoeste 17 Sudoeste 0 -- -- 50
2019-03-25 21:00:00 13.8 6 Oeste 28 Sudoeste 0 -- -- 45
2019-03-25 20:00:00 15.6 10 Sudoeste 27 Sudoeste 0 -- -- 39
2019-03-25 19:00:00 17.8 14 Oeste 37 Sudoeste 0 -- -- 33
2019-03-25 18:00:00 20 18 Oeste 34 Sudoeste 0 -- -- 30
2019-03-25 17:00:00 21.4 17 Oeste 34 Sudoeste 0 -- -- 29
2019-03-25 16:00:00 21.8 17 Oeste 36 Sudoeste 0 -- -- 32
2019-03-25 15:00:00 21.6 17 Sudoeste 36 Oeste 0 -- -- 35
2019-03-25 14:00:00 21.3 15 Sudoeste 30 Sur 0 -- -- 37
2019-03-25 13:00:00 19.6 11 Oeste 24 Oeste 0 -- -- 40
2019-03-25 12:00:00 17.9 13 Oeste 22 Oeste 0 -- -- 42
2019-03-25 11:00:00 15.5 10 Oeste 23 Oeste 0 -- -- 47
2019-03-25 10:00:00 13.1 13 Oeste 22 Oeste 0 -- -- 52
2019-03-25 09:00:00 10.5 6 Oeste 11 Sur 0 -- -- 61
2019-03-25 08:00:00 9.2 2 Sur 7 Oeste 0 -- -- 63
2019-03-25 07:00:00 8.1 2 Oeste 8 Sudoeste 0 -- -- 67
2019-03-25 06:00:00 8.5 2 Nordeste 13 Sudoeste 0 -- -- 66
2019-03-25 05:00:00 9.6 7 Sudoeste 12 Sudoeste 0 -- -- 64
2019-03-25 04:00:00 10.4 4 Oeste 10 Oeste 0 -- -- 61
2019-03-25 03:00:00 11.1 5 Sudoeste 13 Sur 0 -- -- 57
2019-03-25 02:00:00 11.7 6 Sur 12 Sur 0 -- -- 54
2019-03-25 01:00:00 13.6 4 Este 18 Este 0 -- -- 46
2019-03-25 00:00:00 15 8 Este 16 Sudeste 0 -- -- 42